sensor_id;sensor_type;location;lat;lon;timestamp;P1;durP1;ratioP1;P2;durP2;ratioP2
40729;SDS011;26418;50.070;8.436;2022-12-18T00:00:43;56.95;;;20.85;;
40729;SDS011;26418;50.070;8.436;2022-12-18T00:03:11;50.28;;;20.38;;
40729;SDS011;26418;50.070;8.436;2022-12-18T00:05:45;49.58;;;19.70;;
40729;SDS011;26418;50.070;8.436;2022-12-18T00:08:14;54.17;;;20.48;;
40729;SDS011;26418;50.070;8.436;2022-12-18T00:10:39;45.75;;;19.90;;
40729;SDS011;26418;50.070;8.436;2022-12-18T00:13:05;48.58;;;19.15;;
40729;SDS011;26418;50.070;8.436;2022-12-18T00:15:33;46.17;;;19.60;;
40729;SDS011;26418;50.070;8.436;2022-12-18T00:18:02;47.33;;;18.58;;
40729;SDS011;26418;50.070;8.436;2022-12-18T00:20:28;42.28;;;17.75;;
40729;SDS011;26418;50.070;8.436;2022-12-18T00:22:53;48.55;;;18.77;;
40729;SDS011;26418;50.070;8.436;2022-12-18T00:25:19;50.05;;;20.58;;
40729;SDS011;26418;50.070;8.436;2022-12-18T00:27:45;50.55;;;19.80;;
40729;SDS011;26418;50.070;8.436;2022-12-18T00:30:11;51.67;;;20.70;;
40729;SDS011;26418;50.070;8.436;2022-12-18T00:32:37;54.63;;;21.20;;
40729;SDS011;26418;50.070;8.436;2022-12-18T00:35:03;54.17;;;20.60;;
40729;SDS011;26418;50.070;8.436;2022-12-18T00:37:30;52.78;;;20.60;;
40729;SDS011;26418;50.070;8.436;2022-12-18T00:39:55;57.65;;;23.38;;
40729;SDS011;26418;50.070;8.436;2022-12-18T00:42:21;51.25;;;20.42;;
40729;SDS011;26418;50.070;8.436;2022-12-18T00:45:05;55.90;;;21.38;;
40729;SDS011;26418;50.070;8.436;2022-12-18T00:47:31;52.33;;;22.58;;
40729;SDS011;26418;50.070;8.436;2022-12-18T00:49:57;49.47;;;20.20;;
40729;SDS011;26418;50.070;8.436;2022-12-18T00:52:23;58.35;;;22.75;;
40729;SDS011;26418;50.070;8.436;2022-12-18T00:54:48;55.90;;;22.10;;
40729;SDS011;26418;50.070;8.436;2022-12-18T00:57:14;55.08;;;20.77;;
40729;SDS011;26418;50.070;8.436;2022-12-18T00:59:39;56.28;;;21.50;;
40729;SDS011;26418;50.070;8.436;2022-12-18T01:02:05;49.05;;;19.52;;
40729;SDS011;26418;50.070;8.436;2022-12-18T01:04:31;52.80;;;22.05;;
40729;SDS011;26418;50.070;8.436;2022-12-18T01:06:58;51.13;;;20.52;;
40729;SDS011;26418;50.070;8.436;2022-12-18T01:09:23;46.70;;;18.30;;
40729;SDS011;26418;50.070;8.436;2022-12-18T01:11:49;47.78;;;19.55;;
40729;SDS011;26418;50.070;8.436;2022-12-18T01:14:15;49.03;;;18.58;;
40729;SDS011;26418;50.070;8.436;2022-12-18T01:16:40;42.78;;;16.60;;
40729;SDS011;26418;50.070;8.436;2022-12-18T01:19:06;42.95;;;16.08;;
40729;SDS011;26418;50.070;8.436;2022-12-18T01:21:32;45.78;;;17.65;;
40729;SDS011;26418;50.070;8.436;2022-12-18T01:23:58;46.35;;;16.95;;
40729;SDS011;26418;50.070;8.436;2022-12-18T01:26:24;42.60;;;16.17;;
40729;SDS011;26418;50.070;8.436;2022-12-18T01:28:50;47.00;;;17.08;;
40729;SDS011;26418;50.070;8.436;2022-12-18T01:31:23;44.92;;;16.70;;
40729;SDS011;26418;50.070;8.436;2022-12-18T01:33:51;41.28;;;16.10;;
40729;SDS011;26418;50.070;8.436;2022-12-18T01:36:22;45.47;;;16.90;;
40729;SDS011;26418;50.070;8.436;2022-12-18T01:39:12;48.00;;;18.05;;
40729;SDS011;26418;50.070;8.436;2022-12-18T01:41:39;43.00;;;17.08;;
40729;SDS011;26418;50.070;8.436;2022-12-18T01:47:28;43.75;;;16.08;;
40729;SDS011;26418;50.070;8.436;2022-12-18T01:49:55;47.13;;;17.67;;
40729;SDS011;26418;50.070;8.436;2022-12-18T01:52:22;46.40;;;16.30;;
40729;SDS011;26418;50.070;8.436;2022-12-18T01:54:51;39.58;;;15.75;;
40729;SDS011;26418;50.070;8.436;2022-12-18T01:57:18;44.47;;;16.05;;
40729;SDS011;26418;50.070;8.436;2022-12-18T01:59:45;45.58;;;16.05;;
40729;SDS011;26418;50.070;8.436;2022-12-18T02:02:15;42.78;;;16.77;;
40729;SDS011;26418;50.070;8.436;2022-12-18T02:04:42;46.90;;;16.08;;
40729;SDS011;26418;50.070;8.436;2022-12-18T02:09:46;44.15;;;17.23;;
40729;SDS011;26418;50.070;8.436;2022-12-18T02:12:19;42.30;;;17.23;;
40729;SDS011;26418;50.070;8.436;2022-12-18T02:17:36;38.50;;;16.13;;
40729;SDS011;26418;50.070;8.436;2022-12-18T02:27:46;45.42;;;16.17;;
40729;SDS011;26418;50.070;8.436;2022-12-18T02:30:15;38.97;;;15.45;;
40729;SDS011;26418;50.070;8.436;2022-12-18T02:32:44;37.22;;;15.02;;
40729;SDS011;26418;50.070;8.436;2022-12-18T02:35:15;44.80;;;15.90;;
40729;SDS011;26418;50.070;8.436;2022-12-18T02:37:45;35.05;;;14.77;;
40729;SDS011;26418;50.070;8.436;2022-12-18T02:40:12;41.55;;;16.40;;
40729;SDS011;26418;50.070;8.436;2022-12-18T02:42:41;34.17;;;14.00;;
40729;SDS011;26418;50.070;8.436;2022-12-18T02:45:06;38.75;;;14.32;;
40729;SDS011;26418;50.070;8.436;2022-12-18T02:47:33;33.00;;;15.07;;
40729;SDS011;26418;50.070;8.436;2022-12-18T02:58:47;43.03;;;16.58;;
40729;SDS011;26418;50.070;8.436;2022-12-18T03:07:01;33.00;;;14.35;;
40729;SDS011;26418;50.070;8.436;2022-12-18T03:09:37;43.38;;;16.65;;
40729;SDS011;26418;50.070;8.436;2022-12-18T03:12:12;38.25;;;15.15;;
40729;SDS011;26418;50.070;8.436;2022-12-18T03:14:50;35.70;;;16.10;;
40729;SDS011;26418;50.070;8.436;2022-12-18T03:17:25;37.78;;;15.98;;
40729;SDS011;26418;50.070;8.436;2022-12-18T03:19:53;42.03;;;17.13;;
40729;SDS011;26418;50.070;8.436;2022-12-18T03:22:22;44.63;;;16.02;;
40729;SDS011;26418;50.070;8.436;2022-12-18T03:24:50;43.47;;;16.85;;
40729;SDS011;26418;50.070;8.436;2022-12-18T03:27:17;45.15;;;18.17;;
40729;SDS011;26418;50.070;8.436;2022-12-18T03:29:49;46.17;;;17.33;;
40729;SDS011;26418;50.070;8.436;2022-12-18T03:32:23;46.83;;;17.15;;
40729;SDS011;26418;50.070;8.436;2022-12-18T03:34:54;43.05;;;17.85;;
40729;SDS011;26418;50.070;8.436;2022-12-18T03:37:23;39.22;;;16.10;;
40729;SDS011;26418;50.070;8.436;2022-12-18T03:39:49;39.05;;;16.05;;
40729;SDS011;26418;50.070;8.436;2022-12-18T03:42:15;47.42;;;18.67;;
40729;SDS011;26418;50.070;8.436;2022-12-18T03:47:33;31.15;;;12.30;;
40729;SDS011;26418;50.070;8.436;2022-12-18T03:52:49;41.70;;;16.58;;
40729;SDS011;26418;50.070;8.436;2022-12-18T03:55:22;39.28;;;17.17;;
40729;SDS011;26418;50.070;8.436;2022-12-18T03:57:50;44.22;;;16.92;;
40729;SDS011;26418;50.070;8.436;2022-12-18T04:00:18;42.33;;;16.65;;
40729;SDS011;26418;50.070;8.436;2022-12-18T04:02:52;42.22;;;17.10;;
40729;SDS011;26418;50.070;8.436;2022-12-18T04:05:20;43.97;;;17.38;;
40729;SDS011;26418;50.070;8.436;2022-12-18T04:07:49;39.50;;;16.63;;
40729;SDS011;26418;50.070;8.436;2022-12-18T04:10:17;37.55;;;17.45;;
40729;SDS011;26418;50.070;8.436;2022-12-18T04:12:43;40.95;;;16.38;;
40729;SDS011;26418;50.070;8.436;2022-12-18T04:15:10;38.90;;;15.68;;
40729;SDS011;26418;50.070;8.436;2022-12-18T04:17:37;43.45;;;17.65;;
40729;SDS011;26418;50.070;8.436;2022-12-18T04:20:03;43.88;;;17.10;;
40729;SDS011;26418;50.070;8.436;2022-12-18T04:22:29;39.88;;;16.40;;
40729;SDS011;26418;50.070;8.436;2022-12-18T04:24:55;37.13;;;16.70;;
40729;SDS011;26418;50.070;8.436;2022-12-18T04:27:21;41.80;;;17.20;;
40729;SDS011;26418;50.070;8.436;2022-12-18T04:29:47;38.40;;;16.23;;
40729;SDS011;26418;50.070;8.436;2022-12-18T04:32:12;42.97;;;16.45;;
40729;SDS011;26418;50.070;8.436;2022-12-18T04:34:38;40.97;;;17.65;;
40729;SDS011;26418;50.070;8.436;2022-12-18T04:37:04;38.42;;;16.55;;
40729;SDS011;26418;50.070;8.436;2022-12-18T04:39:29;39.15;;;17.38;;
40729;SDS011;26418;50.070;8.436;2022-12-18T04:41:55;32.97;;;15.40;;
40729;SDS011;26418;50.070;8.436;2022-12-18T04:44:20;44.47;;;18.40;;
40729;SDS011;26418;50.070;8.436;2022-12-18T04:46:46;47.45;;;17.23;;
40729;SDS011;26418;50.070;8.436;2022-12-18T04:49:12;38.97;;;17.17;;
40729;SDS011;26418;50.070;8.436;2022-12-18T04:51:38;42.60;;;17.60;;
40729;SDS011;26418;50.070;8.436;2022-12-18T04:54:03;40.05;;;17.55;;
40729;SDS011;26418;50.070;8.436;2022-12-18T04:56:30;38.67;;;16.27;;
40729;SDS011;26418;50.070;8.436;2022-12-18T04:58:56;47.47;;;18.33;;
40729;SDS011;26418;50.070;8.436;2022-12-18T05:01:21;40.40;;;17.63;;
40729;SDS011;26418;50.070;8.436;2022-12-18T05:03:47;45.15;;;17.20;;
40729;SDS011;26418;50.070;8.436;2022-12-18T05:06:13;37.20;;;16.20;;
40729;SDS011;26418;50.070;8.436;2022-12-18T05:08:39;41.58;;;18.52;;
40729;SDS011;26418;50.070;8.436;2022-12-18T05:11:09;37.88;;;17.42;;
40729;SDS011;26418;50.070;8.436;2022-12-18T05:13:37;38.75;;;16.65;;
40729;SDS011;26418;50.070;8.436;2022-12-18T05:16:04;37.22;;;17.55;;
40729;SDS011;26418;50.070;8.436;2022-12-18T05:18:30;48.58;;;19.38;;
40729;SDS011;26418;50.070;8.436;2022-12-18T05:20:56;45.08;;;20.38;;
40729;SDS011;26418;50.070;8.436;2022-12-18T05:23:23;42.95;;;19.08;;
40729;SDS011;26418;50.070;8.436;2022-12-18T05:25:54;48.28;;;20.05;;
40729;SDS011;26418;50.070;8.436;2022-12-18T05:28:21;49.70;;;18.90;;
40729;SDS011;26418;50.070;8.436;2022-12-18T05:30:48;41.97;;;19.20;;
40729;SDS011;26418;50.070;8.436;2022-12-18T05:33:18;45.22;;;19.20;;
40729;SDS011;26418;50.070;8.436;2022-12-18T05:35:50;47.15;;;19.98;;
40729;SDS011;26418;50.070;8.436;2022-12-18T05:38:17;43.00;;;18.83;;
40729;SDS011;26418;50.070;8.436;2022-12-18T05:40:43;40.42;;;17.63;;
40729;SDS011;26418;50.070;8.436;2022-12-18T05:43:09;43.35;;;18.38;;
40729;SDS011;26418;50.070;8.436;2022-12-18T05:45:39;35.78;;;16.88;;
40729;SDS011;26418;50.070;8.436;2022-12-18T05:48:06;50.92;;;20.48;;
40729;SDS011;26418;50.070;8.436;2022-12-18T05:50:36;42.92;;;17.60;;
40729;SDS011;26418;50.070;8.436;2022-12-18T05:53:03;42.78;;;17.85;;
40729;SDS011;26418;50.070;8.436;2022-12-18T05:55:36;45.50;;;17.10;;
40729;SDS011;26418;50.070;8.436;2022-12-18T05:58:03;34.83;;;15.13;;
40729;SDS011;26418;50.070;8.436;2022-12-18T06:00:30;35.08;;;15.05;;
40729;SDS011;26418;50.070;8.436;2022-12-18T06:02:57;35.30;;;14.18;;
40729;SDS011;26418;50.070;8.436;2022-12-18T06:05:24;27.23;;;12.88;;
40729;SDS011;26418;50.070;8.436;2022-12-18T06:07:50;31.92;;;13.40;;
40729;SDS011;26418;50.070;8.436;2022-12-18T06:10:16;37.72;;;13.98;;
40729;SDS011;26418;50.070;8.436;2022-12-18T06:12:41;26.75;;;12.63;;
40729;SDS011;26418;50.070;8.436;2022-12-18T06:15:07;32.88;;;13.90;;
40729;SDS011;26418;50.070;8.436;2022-12-18T06:17:33;33.00;;;13.55;;
40729;SDS011;26418;50.070;8.436;2022-12-18T06:19:59;34.40;;;14.15;;
40729;SDS011;26418;50.070;8.436;2022-12-18T06:22:26;31.98;;;13.30;;
40729;SDS011;26418;50.070;8.436;2022-12-18T06:24:52;34.50;;;12.93;;
40729;SDS011;26418;50.070;8.436;2022-12-18T06:27:18;30.48;;;14.20;;
40729;SDS011;26418;50.070;8.436;2022-12-18T06:29:44;33.85;;;13.70;;
40729;SDS011;26418;50.070;8.436;2022-12-18T06:32:10;32.50;;;14.30;;
40729;SDS011;26418;50.070;8.436;2022-12-18T06:34:39;37.08;;;14.30;;
40729;SDS011;26418;50.070;8.436;2022-12-18T06:37:04;31.30;;;13.30;;
40729;SDS011;26418;50.070;8.436;2022-12-18T06:39:30;26.90;;;11.55;;
40729;SDS011;26418;50.070;8.436;2022-12-18T06:41:55;27.98;;;12.45;;
40729;SDS011;26418;50.070;8.436;2022-12-18T06:44:21;43.60;;;17.25;;
40729;SDS011;26418;50.070;8.436;2022-12-18T06:46:47;31.55;;;12.73;;
40729;SDS011;26418;50.070;8.436;2022-12-18T06:49:12;38.03;;;15.90;;
40729;SDS011;26418;50.070;8.436;2022-12-18T06:51:38;44.13;;;17.77;;
40729;SDS011;26418;50.070;8.436;2022-12-18T06:54:04;28.33;;;13.52;;
40729;SDS011;26418;50.070;8.436;2022-12-18T06:56:29;38.38;;;16.27;;
40729;SDS011;26418;50.070;8.436;2022-12-18T06:58:56;39.83;;;17.80;;
40729;SDS011;26418;50.070;8.436;2022-12-18T07:01:21;44.42;;;17.35;;
40729;SDS011;26418;50.070;8.436;2022-12-18T07:03:51;36.75;;;14.85;;
40729;SDS011;26418;50.070;8.436;2022-12-18T07:06:19;39.22;;;16.67;;
40729;SDS011;26418;50.070;8.436;2022-12-18T07:08:46;40.28;;;15.25;;
40729;SDS011;26418;50.070;8.436;2022-12-18T07:11:12;34.58;;;14.80;;
40729;SDS011;26418;50.070;8.436;2022-12-18T07:13:38;40.30;;;16.73;;
40729;SDS011;26418;50.070;8.436;2022-12-18T07:16:10;34.97;;;14.27;;
40729;SDS011;26418;50.070;8.436;2022-12-18T07:18:39;34.58;;;14.68;;
40729;SDS011;26418;50.070;8.436;2022-12-18T07:21:05;40.08;;;14.88;;
40729;SDS011;26418;50.070;8.436;2022-12-18T07:23:32;39.17;;;15.98;;
40729;SDS011;26418;50.070;8.436;2022-12-18T07:26:02;37.72;;;15.73;;
40729;SDS011;26418;50.070;8.436;2022-12-18T07:28:34;31.67;;;14.30;;
40729;SDS011;26418;50.070;8.436;2022-12-18T07:31:04;38.38;;;14.70;;
40729;SDS011;26418;50.070;8.436;2022-12-18T07:33:31;35.25;;;15.95;;
40729;SDS011;26418;50.070;8.436;2022-12-18T07:35:58;34.05;;;14.40;;
40729;SDS011;26418;50.070;8.436;2022-12-18T07:38:25;38.88;;;16.67;;
40729;SDS011;26418;50.070;8.436;2022-12-18T07:40:51;35.75;;;15.38;;
40729;SDS011;26418;50.070;8.436;2022-12-18T07:43:17;41.47;;;15.90;;
40729;SDS011;26418;50.070;8.436;2022-12-18T07:45:42;40.00;;;15.60;;
40729;SDS011;26418;50.070;8.436;2022-12-18T07:48:08;35.83;;;15.48;;
40729;SDS011;26418;50.070;8.436;2022-12-18T07:50:34;36.97;;;15.77;;
40729;SDS011;26418;50.070;8.436;2022-12-18T07:53:00;36.75;;;16.50;;
40729;SDS011;26418;50.070;8.436;2022-12-18T07:55:29;34.90;;;15.63;;
40729;SDS011;26418;50.070;8.436;2022-12-18T07:57:55;35.67;;;14.93;;
40729;SDS011;26418;50.070;8.436;2022-12-18T08:00:21;37.30;;;16.17;;
40729;SDS011;26418;50.070;8.436;2022-12-18T08:02:46;40.08;;;15.48;;
40729;SDS011;26418;50.070;8.436;2022-12-18T08:05:12;39.20;;;15.10;;
40729;SDS011;26418;50.070;8.436;2022-12-18T08:07:40;36.88;;;16.30;;
40729;SDS011;26418;50.070;8.436;2022-12-18T08:10:06;38.08;;;15.35;;
40729;SDS011;26418;50.070;8.436;2022-12-18T08:12:35;35.65;;;15.32;;
40729;SDS011;26418;50.070;8.436;2022-12-18T08:15:04;47.85;;;18.02;;
40729;SDS011;26418;50.070;8.436;2022-12-18T08:17:30;35.70;;;16.73;;
40729;SDS011;26418;50.070;8.436;2022-12-18T08:19:56;38.40;;;15.73;;
40729;SDS011;26418;50.070;8.436;2022-12-18T08:22:22;43.08;;;17.02;;
40729;SDS011;26418;50.070;8.436;2022-12-18T08:24:48;39.38;;;16.23;;
40729;SDS011;26418;50.070;8.436;2022-12-18T08:27:14;43.88;;;16.50;;
40729;SDS011;26418;50.070;8.436;2022-12-18T08:29:39;37.67;;;14.10;;
40729;SDS011;26418;50.070;8.436;2022-12-18T08:32:05;43.10;;;15.30;;
40729;SDS011;26418;50.070;8.436;2022-12-18T08:34:31;39.03;;;14.38;;
40729;SDS011;26418;50.070;8.436;2022-12-18T08:36:56;39.90;;;15.18;;
40729;SDS011;26418;50.070;8.436;2022-12-18T08:39:22;39.70;;;15.65;;
40729;SDS011;26418;50.070;8.436;2022-12-18T08:41:47;31.88;;;14.50;;
40729;SDS011;26418;50.070;8.436;2022-12-18T08:44:33;40.55;;;15.93;;
40729;SDS011;26418;50.070;8.436;2022-12-18T08:49:33;36.42;;;16.73;;
40729;SDS011;26418;50.070;8.436;2022-12-18T08:52:02;41.15;;;16.92;;
40729;SDS011;26418;50.070;8.436;2022-12-18T08:54:28;36.05;;;15.73;;
40729;SDS011;26418;50.070;8.436;2022-12-18T08:56:54;45.50;;;17.25;;
40729;SDS011;26418;50.070;8.436;2022-12-18T08:59:19;42.63;;;16.88;;
40729;SDS011;26418;50.070;8.436;2022-12-18T09:01:45;46.10;;;18.00;;
40729;SDS011;26418;50.070;8.436;2022-12-18T09:04:12;53.75;;;18.55;;
40729;SDS011;26418;50.070;8.436;2022-12-18T09:06:39;36.08;;;16.92;;
40729;SDS011;26418;50.070;8.436;2022-12-18T09:09:05;49.83;;;18.08;;
40729;SDS011;26418;50.070;8.436;2022-12-18T09:11:34;40.88;;;16.75;;
40729;SDS011;26418;50.070;8.436;2022-12-18T09:14:00;44.45;;;19.55;;
40729;SDS011;26418;50.070;8.436;2022-12-18T09:16:27;46.28;;;18.73;;
40729;SDS011;26418;50.070;8.436;2022-12-18T09:18:56;54.83;;;20.80;;
40729;SDS011;26418;50.070;8.436;2022-12-18T09:21:25;48.33;;;19.73;;
40729;SDS011;26418;50.070;8.436;2022-12-18T09:23:53;46.38;;;18.58;;
40729;SDS011;26418;50.070;8.436;2022-12-18T09:26:20;51.17;;;19.92;;
40729;SDS011;26418;50.070;8.436;2022-12-18T09:28:46;52.65;;;20.85;;
40729;SDS011;26418;50.070;8.436;2022-12-18T09:31:12;56.17;;;20.80;;
40729;SDS011;26418;50.070;8.436;2022-12-18T09:33:39;50.22;;;20.33;;
40729;SDS011;26418;50.070;8.436;2022-12-18T09:36:07;48.63;;;19.55;;
40729;SDS011;26418;50.070;8.436;2022-12-18T09:38:35;45.13;;;19.85;;
40729;SDS011;26418;50.070;8.436;2022-12-18T09:43:44;49.60;;;20.05;;
40729;SDS011;26418;50.070;8.436;2022-12-18T09:46:16;53.22;;;20.75;;
40729;SDS011;26418;50.070;8.436;2022-12-18T09:48:48;37.78;;;16.02;;
40729;SDS011;26418;50.070;8.436;2022-12-18T09:51:22;58.53;;;22.10;;
40729;SDS011;26418;50.070;8.436;2022-12-18T09:53:58;48.95;;;21.42;;
40729;SDS011;26418;50.070;8.436;2022-12-18T09:56:28;58.58;;;22.27;;
40729;SDS011;26418;50.070;8.436;2022-12-18T10:01:27;46.22;;;19.95;;
40729;SDS011;26418;50.070;8.436;2022-12-18T10:03:54;49.92;;;20.80;;
40729;SDS011;26418;50.070;8.436;2022-12-18T10:06:26;55.75;;;22.08;;
40729;SDS011;26418;50.070;8.436;2022-12-18T10:11:53;53.78;;;22.55;;
40729;SDS011;26418;50.070;8.436;2022-12-18T10:17:40;53.25;;;21.65;;
40729;SDS011;26418;50.070;8.436;2022-12-18T10:27:50;51.55;;;21.98;;
40729;SDS011;26418;50.070;8.436;2022-12-18T10:30:23;56.72;;;22.77;;
40729;SDS011;26418;50.070;8.436;2022-12-18T10:32:50;57.20;;;24.45;;
40729;SDS011;26418;50.070;8.436;2022-12-18T10:35:20;53.92;;;22.35;;
40729;SDS011;26418;50.070;8.436;2022-12-18T10:40:55;55.40;;;24.27;;
40729;SDS011;26418;50.070;8.436;2022-12-18T10:43:35;48.40;;;22.42;;
40729;SDS011;26418;50.070;8.436;2022-12-18T10:48:41;53.03;;;21.90;;
40729;SDS011;26418;50.070;8.436;2022-12-18T10:53:52;67.95;;;25.27;;
40729;SDS011;26418;50.070;8.436;2022-12-18T10:56:24;52.10;;;23.27;;
40729;SDS011;26418;50.070;8.436;2022-12-18T10:58:58;57.92;;;24.33;;
40729;SDS011;26418;50.070;8.436;2022-12-18T11:04:50;51.85;;;23.40;;
40729;SDS011;26418;50.070;8.436;2022-12-18T11:07:17;55.08;;;23.73;;
40729;SDS011;26418;50.070;8.436;2022-12-18T11:09:42;52.22;;;24.00;;
40729;SDS011;26418;50.070;8.436;2022-12-18T11:17:33;60.78;;;24.90;;
40729;SDS011;26418;50.070;8.436;2022-12-18T11:20:01;60.80;;;25.00;;
40729;SDS011;26418;50.070;8.436;2022-12-18T11:22:30;55.42;;;25.52;;
40729;SDS011;26418;50.070;8.436;2022-12-18T11:27:26;55.75;;;23.23;;
40729;SDS011;26418;50.070;8.436;2022-12-18T11:30:06;61.40;;;26.30;;
40729;SDS011;26418;50.070;8.436;2022-12-18T11:32:45;61.80;;;26.38;;
40729;SDS011;26418;50.070;8.436;2022-12-18T11:35:48;63.78;;;25.05;;
40729;SDS011;26418;50.070;8.436;2022-12-18T11:40:56;63.38;;;24.73;;
40729;SDS011;26418;50.070;8.436;2022-12-18T11:43:28;54.22;;;22.73;;
40729;SDS011;26418;50.070;8.436;2022-12-18T11:46:00;62.38;;;24.52;;
40729;SDS011;26418;50.070;8.436;2022-12-18T11:48:52;60.80;;;25.65;;
40729;SDS011;26418;50.070;8.436;2022-12-18T11:51:28;58.28;;;24.75;;
40729;SDS011;26418;50.070;8.436;2022-12-18T11:54:00;57.60;;;23.35;;
40729;SDS011;26418;50.070;8.436;2022-12-18T11:56:30;59.78;;;25.27;;
40729;SDS011;26418;50.070;8.436;2022-12-18T12:04:28;62.28;;;25.20;;
40729;SDS011;26418;50.070;8.436;2022-12-18T12:12:30;60.10;;;24.70;;
40729;SDS011;26418;50.070;8.436;2022-12-18T12:20:38;59.97;;;24.60;;
40729;SDS011;26418;50.070;8.436;2022-12-18T12:28:21;69.13;;;27.48;;
40729;SDS011;26418;50.070;8.436;2022-12-18T12:34:05;67.65;;;30.23;;
40729;SDS011;26418;50.070;8.436;2022-12-18T12:39:40;64.40;;;26.05;;
40729;SDS011;26418;50.070;8.436;2022-12-18T12:42:31;64.95;;;28.83;;
40729;SDS011;26418;50.070;8.436;2022-12-18T12:45:19;82.55;;;36.22;;
40729;SDS011;26418;50.070;8.436;2022-12-18T12:47:49;81.80;;;37.95;;
40729;SDS011;26418;50.070;8.436;2022-12-18T12:50:18;63.83;;;27.13;;
40729;SDS011;26418;50.070;8.436;2022-12-18T12:52:54;69.53;;;27.40;;
40729;SDS011;26418;50.070;8.436;2022-12-18T12:55:23;64.50;;;25.38;;
40729;SDS011;26418;50.070;8.436;2022-12-18T12:57:54;67.00;;;26.48;;
40729;SDS011;26418;50.070;8.436;2022-12-18T13:00:21;64.85;;;26.45;;
40729;SDS011;26418;50.070;8.436;2022-12-18T13:06:23;63.97;;;24.95;;
40729;SDS011;26418;50.070;8.436;2022-12-18T13:09:05;58.00;;;23.13;;
40729;SDS011;26418;50.070;8.436;2022-12-18T13:11:32;67.88;;;26.90;;
40729;SDS011;26418;50.070;8.436;2022-12-18T13:16:50;59.95;;;23.65;;
40729;SDS011;26418;50.070;8.436;2022-12-18T13:19:23;70.05;;;26.90;;
40729;SDS011;26418;50.070;8.436;2022-12-18T13:21:55;67.15;;;25.35;;
40729;SDS011;26418;50.070;8.436;2022-12-18T13:24:23;62.85;;;24.25;;
40729;SDS011;26418;50.070;8.436;2022-12-18T13:26:54;63.60;;;23.75;;
40729;SDS011;26418;50.070;8.436;2022-12-18T13:29:40;61.40;;;23.30;;
40729;SDS011;26418;50.070;8.436;2022-12-18T13:32:18;65.20;;;24.85;;
40729;SDS011;26418;50.070;8.436;2022-12-18T13:37:53;63.25;;;24.00;;
40729;SDS011;26418;50.070;8.436;2022-12-18T13:41:03;66.38;;;24.00;;
40729;SDS011;26418;50.070;8.436;2022-12-18T13:48:55;52.42;;;19.75;;
40729;SDS011;26418;50.070;8.436;2022-12-18T13:51:21;60.75;;;22.40;;
40729;SDS011;26418;50.070;8.436;2022-12-18T13:57:02;72.75;;;25.85;;
40729;SDS011;26418;50.070;8.436;2022-12-18T13:59:39;61.95;;;24.83;;
40729;SDS011;26418;50.070;8.436;2022-12-18T14:02:14;63.78;;;24.25;;
40729;SDS011;26418;50.070;8.436;2022-12-18T14:04:44;73.45;;;27.15;;
40729;SDS011;26418;50.070;8.436;2022-12-18T14:07:14;70.75;;;26.13;;
40729;SDS011;26418;50.070;8.436;2022-12-18T14:09:50;67.68;;;25.73;;
40729;SDS011;26418;50.070;8.436;2022-12-18T14:12:22;63.35;;;25.50;;
40729;SDS011;26418;50.070;8.436;2022-12-18T14:15:22;62.28;;;22.65;;
40729;SDS011;26418;50.070;8.436;2022-12-18T14:20:19;61.15;;;25.45;;
40729;SDS011;26418;50.070;8.436;2022-12-18T14:22:46;65.55;;;26.75;;
40729;SDS011;26418;50.070;8.436;2022-12-18T14:27:44;70.67;;;26.47;;
40729;SDS011;26418;50.070;8.436;2022-12-18T14:30:26;67.60;;;26.48;;
40729;SDS011;26418;50.070;8.436;2022-12-18T14:33:15;69.25;;;27.15;;
40729;SDS011;26418;50.070;8.436;2022-12-18T14:35:56;67.05;;;25.02;;
40729;SDS011;26418;50.070;8.436;2022-12-18T14:41:01;57.88;;;24.48;;
40729;SDS011;26418;50.070;8.436;2022-12-18T14:43:29;61.78;;;23.48;;
40729;SDS011;26418;50.070;8.436;2022-12-18T14:45:58;60.78;;;23.17;;
40729;SDS011;26418;50.070;8.436;2022-12-18T14:48:33;68.90;;;24.40;;
40729;SDS011;26418;50.070;8.436;2022-12-18T14:51:06;64.80;;;24.58;;
40729;SDS011;26418;50.070;8.436;2022-12-18T14:53:48;60.88;;;21.77;;
40729;SDS011;26418;50.070;8.436;2022-12-18T14:56:27;55.95;;;23.02;;
40729;SDS011;26418;50.070;8.436;2022-12-18T15:03:59;64.18;;;28.15;;
40729;SDS011;26418;50.070;8.436;2022-12-18T15:06:28;74.22;;;28.88;;
40729;SDS011;26418;50.070;8.436;2022-12-18T15:08:55;63.85;;;27.25;;
40729;SDS011;26418;50.070;8.436;2022-12-18T15:16:56;78.63;;;30.58;;
40729;SDS011;26418;50.070;8.436;2022-12-18T15:19:32;127.82;;;53.95;;
40729;SDS011;26418;50.070;8.436;2022-12-18T15:22:04;109.20;;;46.05;;
40729;SDS011;26418;50.070;8.436;2022-12-18T15:24:30;90.18;;;37.15;;
40729;SDS011;26418;50.070;8.436;2022-12-18T15:26:58;75.93;;;29.42;;
40729;SDS011;26418;50.070;8.436;2022-12-18T15:29:24;69.40;;;26.45;;
40729;SDS011;26418;50.070;8.436;2022-12-18T15:32:03;68.82;;;25.00;;
40729;SDS011;26418;50.070;8.436;2022-12-18T15:34:31;54.60;;;22.10;;
40729;SDS011;26418;50.070;8.436;2022-12-18T15:36:59;63.55;;;23.50;;
40729;SDS011;26418;50.070;8.436;2022-12-18T15:39:25;64.95;;;24.02;;
40729;SDS011;26418;50.070;8.436;2022-12-18T15:41:50;56.53;;;22.27;;
40729;SDS011;26418;50.070;8.436;2022-12-18T15:44:34;62.53;;;23.42;;
40729;SDS011;26418;50.070;8.436;2022-12-18T15:47:00;59.67;;;22.08;;
40729;SDS011;26418;50.070;8.436;2022-12-18T15:49:26;62.67;;;22.58;;
40729;SDS011;26418;50.070;8.436;2022-12-18T15:51:56;61.13;;;22.55;;
40729;SDS011;26418;50.070;8.436;2022-12-18T15:54:24;64.13;;;24.13;;
40729;SDS011;26418;50.070;8.436;2022-12-18T15:57:09;58.58;;;23.48;;
40729;SDS011;26418;50.070;8.436;2022-12-18T15:59:48;70.85;;;25.58;;
40729;SDS011;26418;50.070;8.436;2022-12-18T16:02:16;65.82;;;23.65;;
40729;SDS011;26418;50.070;8.436;2022-12-18T16:04:43;68.47;;;25.75;;
40729;SDS011;26418;50.070;8.436;2022-12-18T16:07:09;62.38;;;24.75;;
40729;SDS011;26418;50.070;8.436;2022-12-18T16:09:35;73.78;;;27.35;;
40729;SDS011;26418;50.070;8.436;2022-12-18T16:12:01;61.83;;;23.55;;
40729;SDS011;26418;50.070;8.436;2022-12-18T16:14:28;70.72;;;26.85;;
40729;SDS011;26418;50.070;8.436;2022-12-18T16:16:56;65.88;;;25.20;;
40729;SDS011;26418;50.070;8.436;2022-12-18T16:19:30;67.00;;;24.98;;
40729;SDS011;26418;50.070;8.436;2022-12-18T16:21:57;67.03;;;25.38;;
40729;SDS011;26418;50.070;8.436;2022-12-18T16:24:24;59.97;;;23.73;;
40729;SDS011;26418;50.070;8.436;2022-12-18T16:26:55;63.05;;;23.30;;
40729;SDS011;26418;50.070;8.436;2022-12-18T16:29:23;74.28;;;26.30;;
40729;SDS011;26418;50.070;8.436;2022-12-18T16:31:52;69.25;;;24.98;;
40729;SDS011;26418;50.070;8.436;2022-12-18T16:34:24;63.90;;;24.48;;
40729;SDS011;26418;50.070;8.436;2022-12-18T16:36:53;67.60;;;25.38;;
40729;SDS011;26418;50.070;8.436;2022-12-18T16:39:20;49.47;;;20.50;;
40729;SDS011;26418;50.070;8.436;2022-12-18T16:41:46;66.10;;;24.77;;
40729;SDS011;26418;50.070;8.436;2022-12-18T16:44:12;68.88;;;26.13;;
40729;SDS011;26418;50.070;8.436;2022-12-18T16:46:39;68.03;;;26.40;;
40729;SDS011;26418;50.070;8.436;2022-12-18T16:49:08;57.88;;;24.15;;
40729;SDS011;26418;50.070;8.436;2022-12-18T16:51:34;68.28;;;25.35;;
40729;SDS011;26418;50.070;8.436;2022-12-18T16:54:00;66.03;;;26.63;;
40729;SDS011;26418;50.070;8.436;2022-12-18T16:56:26;65.38;;;25.83;;